createdAt,value
2023-03-02T00:01:40.129Z,60.15
2023-03-02T00:04:07.954Z,59.74
2023-03-02T00:06:35.815Z,59.40
2023-03-02T00:09:04.349Z,59.61
2023-03-02T00:11:32.384Z,60.19
2023-03-02T00:14:00.080Z,60.49
2023-03-02T00:16:27.722Z,60.52
2023-03-02T00:18:55.496Z,60.10
2023-03-02T00:21:24.658Z,60.76
2023-03-02T00:23:53.258Z,60.61
2023-03-02T00:26:21.071Z,60.57
2023-03-02T00:28:48.746Z,61.12
2023-03-02T00:31:16.714Z,60.44
2023-03-02T00:33:44.637Z,61.00
2023-03-02T00:36:13.443Z,60.81
2023-03-02T00:38:41.150Z,60.71
2023-03-02T00:41:08.838Z,61.15
2023-03-02T00:43:36.652Z,60.98
2023-03-02T00:46:04.904Z,60.91
2023-03-02T00:48:32.824Z,61.38
2023-03-02T00:51:00.467Z,61.62
2023-03-02T00:53:28.168Z,61.72
2023-03-02T00:55:55.849Z,61.78
2023-03-02T00:58:23.446Z,62.01
2023-03-02T01:00:51.472Z,62.10
2023-03-02T01:03:19.242Z,61.99
2023-03-02T01:05:46.889Z,61.62
2023-03-02T01:08:16.010Z,61.40
2023-03-02T01:10:43.775Z,61.82
2023-03-02T01:13:11.756Z,61.92
2023-03-02T01:15:39.372Z,62.53
2023-03-02T01:18:07.005Z,62.10
2023-03-02T01:20:34.847Z,62.05
2023-03-02T01:23:02.432Z,61.80
2023-03-02T01:25:30.436Z,62.19
2023-03-02T01:27:58.326Z,62.61
2023-03-02T01:30:25.934Z,62.33
2023-03-02T01:32:53.663Z,62.84
2023-03-02T01:35:21.313Z,62.22
2023-03-02T01:37:49.350Z,61.37
2023-03-02T01:40:17.012Z,62.49
2023-03-02T01:45:43.356Z,61.56
2023-03-02T01:48:11.354Z,61.33
2023-03-02T01:50:39.375Z,61.79
2023-03-02T01:53:07.042Z,61.80
2023-03-02T01:55:34.690Z,62.00
2023-03-02T01:58:02.304Z,61.32
2023-03-02T02:00:30.366Z,61.94
2023-03-02T02:03:08.781Z,62.17
2023-03-02T02:05:36.471Z,62.23
2023-03-02T02:08:04.079Z,61.80
2023-03-02T02:10:32.085Z,62.56
2023-03-02T02:12:59.799Z,62.50
2023-03-02T02:15:27.417Z,62.54
2023-03-02T02:17:55.734Z,62.21
2023-03-02T02:20:24.196Z,62.30
2023-03-02T02:22:52.163Z,62.23
2023-03-02T02:25:19.915Z,61.69
2023-03-02T02:27:47.605Z,62.43
2023-03-02T02:30:15.434Z,62.01
2023-03-02T02:32:43.465Z,61.84
2023-03-02T02:35:11.480Z,62.28
2023-03-02T02:37:39.037Z,62.52
2023-03-02T02:40:07.686Z,62.59
2023-03-02T02:42:35.385Z,62.09
2023-03-02T02:45:02.995Z,62.20
2023-03-02T02:47:31.039Z,61.85
2023-03-02T02:49:58.894Z,62.31
2023-03-02T02:52:26.462Z,62.27
2023-03-02T02:54:55.791Z,61.96
2023-03-02T02:57:24.789Z,62.72
2023-03-02T02:59:52.737Z,62.45
2023-03-02T03:02:20.862Z,62.02
2023-03-02T03:04:48.510Z,62.36
2023-03-02T03:07:16.064Z,62.47
2023-03-02T03:09:43.690Z,62.13
2023-03-02T03:12:11.721Z,62.23
2023-03-02T03:14:39.339Z,62.18
2023-03-02T03:17:12.764Z,62.37
2023-03-02T03:19:40.606Z,62.58
2023-03-02T03:22:08.200Z,62.51
2023-03-02T03:24:36.213Z,62.40
2023-03-02T03:27:05.621Z,62.62
2023-03-02T03:29:33.300Z,62.97
2023-03-02T03:32:01.106Z,62.79
2023-03-02T03:34:28.880Z,62.64
2023-03-02T03:37:02.196Z,62.23
2023-03-02T03:39:29.815Z,62.78
2023-03-02T03:41:57.392Z,62.48
2023-03-02T03:44:25.397Z,62.64
2023-03-02T03:46:52.958Z,62.23
2023-03-02T03:49:20.900Z,62.38
2023-03-02T03:51:48.504Z,62.80
2023-03-02T03:54:16.243Z,62.95
2023-03-02T03:56:45.063Z,62.33
2023-03-02T03:59:13.858Z,62.85
2023-03-02T04:01:41.929Z,62.83
2023-03-02T04:04:09.650Z,62.73
2023-03-02T04:06:37.346Z,62.61
2023-03-02T04:09:05.838Z,62.54
2023-03-02T04:11:33.469Z,62.19
2023-03-02T04:14:01.132Z,62.68
2023-03-02T04:16:28.724Z,62.67
2023-03-02T04:18:56.769Z,62.76
2023-03-02T04:21:24.615Z,62.60
2023-03-02T04:23:52.211Z,63.01
2023-03-02T04:26:20.202Z,62.76
2023-03-02T04:28:50.960Z,63.02
2023-03-02T04:31:18.642Z,62.97
2023-03-02T04:33:46.322Z,63.30
2023-03-02T04:36:13.989Z,63.23
2023-03-02T04:38:42.052Z,63.37
2023-03-02T04:41:10.065Z,63.16
2023-03-02T04:43:37.682Z,63.54
2023-03-02T04:46:05.512Z,63.65
2023-03-02T04:48:33.161Z,63.19
2023-03-02T04:51:01.138Z,63.46
2023-03-02T04:53:28.732Z,62.97
2023-03-02T04:55:56.354Z,63.83
2023-03-02T04:58:24.212Z,63.65
2023-03-02T05:00:51.797Z,63.40
2023-03-02T05:03:20.306Z,63.63
2023-03-02T05:05:47.918Z,63.77
2023-03-02T05:08:15.578Z,63.67
2023-03-02T05:10:43.359Z,62.84
2023-03-02T05:13:11.020Z,63.21
2023-03-02T05:15:38.630Z,63.36
2023-03-02T05:18:06.214Z,63.12
2023-03-02T05:20:34.550Z,63.13
2023-03-02T05:23:02.366Z,63.19
2023-03-02T05:25:30.324Z,62.81
2023-03-02T05:27:58.342Z,63.23
2023-03-02T05:30:25.988Z,63.50
2023-03-02T05:32:53.648Z,62.94
2023-03-02T05:35:21.439Z,63.40
2023-03-02T05:37:49.083Z,63.23
2023-03-02T05:40:17.073Z,63.26
2023-03-02T05:42:44.790Z,63.03
2023-03-02T05:45:12.504Z,63.74
2023-03-02T05:47:41.492Z,63.03
2023-03-02T05:50:09.210Z,63.57
2023-03-02T05:52:37.226Z,63.02
2023-03-02T05:55:04.844Z,63.23
2023-03-02T05:57:32.581Z,63.25
2023-03-02T06:00:00.193Z,63.24
2023-03-02T06:02:27.900Z,63.09
2023-03-02T06:04:55.957Z,63.80
2023-03-02T06:07:23.613Z,63.10
2023-03-02T06:09:52.028Z,63.29
2023-03-02T06:12:19.890Z,63.47
2023-03-02T06:14:48.109Z,62.93
2023-03-02T06:17:16.121Z,63.12
2023-03-02T06:19:43.806Z,63.69
2023-03-02T06:22:11.397Z,63.45
2023-03-02T06:24:39.228Z,62.91
2023-03-02T06:27:06.940Z,63.10
2023-03-02T06:29:34.956Z,62.97
2023-03-02T06:32:02.827Z,63.12
2023-03-02T06:34:30.593Z,63.46
2023-03-02T06:36:58.622Z,63.17
2023-03-02T06:39:26.323Z,63.21
2023-03-02T06:41:54.554Z,63.32
2023-03-02T06:44:22.237Z,63.51
2023-03-02T06:46:49.867Z,63.19
2023-03-02T06:49:17.997Z,62.48
2023-03-02T06:51:45.672Z,63.13
2023-03-02T06:54:14.206Z,62.91
2023-03-02T06:56:41.907Z,62.92
2023-03-02T06:59:09.533Z,62.68
2023-03-02T07:01:37.417Z,63.09
2023-03-02T07:04:05.356Z,62.84
2023-03-02T07:06:33.340Z,62.66
2023-03-02T07:09:01.000Z,63.26
2023-03-02T07:11:28.767Z,63.02
2023-03-02T07:13:56.790Z,62.93
2023-03-02T07:16:24.767Z,62.57
2023-03-02T07:18:52.870Z,62.95
2023-03-02T07:21:20.524Z,62.77
2023-03-02T07:23:48.242Z,62.71
2023-03-02T07:26:16.339Z,62.64
2023-03-02T07:28:44.739Z,62.90
2023-03-02T07:31:12.518Z,62.45
2023-03-02T07:33:40.360Z,62.49
2023-03-02T07:36:08.186Z,61.99
2023-03-02T07:38:37.235Z,61.79
2023-03-02T07:41:05.175Z,61.32
2023-03-02T07:43:36.106Z,60.99
2023-03-02T07:46:04.619Z,60.70
2023-03-02T07:48:32.381Z,60.86
2023-03-02T07:51:00.138Z,60.41
2023-03-02T07:53:27.958Z,60.65
2023-03-02T07:55:56.158Z,60.44
2023-03-02T07:58:24.383Z,59.63
2023-03-02T08:00:52.229Z,59.28
2023-03-02T08:03:20.053Z,59.34
2023-03-02T08:05:47.743Z,59.42
2023-03-02T08:08:16.168Z,59.16
2023-03-02T08:10:43.907Z,58.36
2023-03-02T08:13:11.810Z,58.49
2023-03-02T08:15:40.327Z,58.23
2023-03-02T08:18:08.169Z,57.74
2023-03-02T08:20:36.399Z,57.92
2023-03-02T08:23:04.592Z,57.47
2023-03-02T08:25:32.500Z,57.39
2023-03-02T08:28:00.585Z,57.63
2023-03-02T08:30:28.637Z,57.55
2023-03-02T08:32:56.428Z,57.08
2023-03-02T08:35:24.269Z,57.76
2023-03-02T08:37:52.116Z,57.36
2023-03-02T08:40:20.121Z,56.76
2023-03-02T08:42:48.346Z,56.58
2023-03-02T08:45:17.028Z,56.61
2023-03-02T08:47:44.918Z,56.33
2023-03-02T08:50:15.269Z,55.91
2023-03-02T08:52:43.911Z,55.56
2023-03-02T08:55:11.727Z,55.56
2023-03-02T08:57:41.922Z,55.07
2023-03-02T09:00:14.962Z,54.56
2023-03-02T09:02:42.731Z,53.34
2023-03-02T09:05:10.630Z,52.78
2023-03-02T09:07:38.520Z,52.79
2023-03-02T09:10:06.659Z,52.78
2023-03-02T09:12:34.573Z,53.14
2023-03-02T09:15:02.605Z,53.10
2023-03-02T09:17:30.892Z,53.03
2023-03-02T09:20:00.640Z,53.03
2023-03-02T09:22:29.523Z,53.03
2023-03-02T09:24:57.342Z,52.98
2023-03-02T09:27:25.281Z,52.82
2023-03-02T09:29:53.671Z,52.80
2023-03-02T09:32:21.641Z,52.33
2023-03-02T09:34:49.955Z,52.39
2023-03-02T09:37:17.953Z,52.52
2023-03-02T09:39:45.686Z,52.10
2023-03-02T09:42:13.667Z,52.21
2023-03-02T09:44:42.034Z,51.93
2023-03-02T09:47:10.141Z,51.83
2023-03-02T09:49:38.017Z,52.37
2023-03-02T09:52:06.056Z,52.20
2023-03-02T09:54:34.028Z,51.93
2023-03-02T09:57:02.310Z,51.89
2023-03-02T09:59:30.848Z,51.37
2023-03-02T10:02:01.548Z,51.42
2023-03-02T10:04:29.443Z,50.95
2023-03-02T10:06:58.153Z,50.78
2023-03-02T10:09:26.448Z,50.83
2023-03-02T10:11:55.609Z,50.47
2023-03-02T10:14:23.607Z,49.88
2023-03-02T10:16:51.462Z,49.67
2023-03-02T10:19:19.607Z,48.82
2023-03-02T10:21:47.636Z,46.83
2023-03-02T10:24:16.133Z,46.32
2023-03-02T10:26:43.874Z,44.93
2023-03-02T10:29:11.774Z,43.55
2023-03-02T10:31:39.834Z,43.07
2023-03-02T10:34:07.687Z,42.02
2023-03-02T10:36:36.281Z,41.84
2023-03-02T10:39:04.431Z,41.17
2023-03-02T10:41:32.958Z,40.86
2023-03-02T10:44:01.114Z,40.50
2023-03-02T10:46:29.023Z,40.01
2023-03-02T10:48:58.301Z,39.56
2023-03-02T10:51:26.176Z,39.24
2023-03-02T10:53:54.272Z,38.72
2023-03-02T10:56:22.584Z,38.73
2023-03-02T10:58:50.411Z,38.62
2023-03-02T11:01:18.900Z,37.84
2023-03-02T11:03:46.913Z,37.85
2023-03-02T11:06:14.742Z,37.17
2023-03-02T11:08:42.984Z,37.32
2023-03-02T11:11:10.984Z,37.96
2023-03-02T11:13:39.364Z,37.73
2023-03-02T11:16:07.428Z,37.29
2023-03-02T11:18:35.271Z,37.28
2023-03-02T11:21:04.281Z,37.44
2023-03-02T11:23:32.601Z,37.87
2023-03-02T11:26:00.773Z,37.54
2023-03-02T11:28:29.237Z,37.24
2023-03-02T11:30:57.082Z,37.26
2023-03-02T11:33:25.169Z,37.02
2023-03-02T11:35:53.215Z,36.36
2023-03-02T11:38:21.965Z,36.44
2023-03-02T11:40:49.722Z,35.72
2023-03-02T11:43:17.688Z,35.75
2023-03-02T11:45:45.833Z,35.81
2023-03-02T11:48:13.834Z,35.50
2023-03-02T11:50:41.781Z,34.65
2023-03-02T11:53:09.695Z,33.96
2023-03-02T11:55:37.577Z,33.44
2023-03-02T11:58:05.862Z,32.80
2023-03-02T12:00:33.677Z,33.17
2023-03-02T12:03:02.066Z,32.50
2023-03-02T12:05:30.127Z,32.31
2023-03-02T12:07:58.121Z,32.72
2023-03-02T12:10:28.772Z,32.89
2023-03-02T12:12:56.814Z,33.19
2023-03-02T12:15:25.190Z,32.23
2023-03-02T12:17:53.502Z,31.79
2023-03-02T12:20:21.548Z,31.90
2023-03-02T12:22:50.989Z,31.59
2023-03-02T12:25:20.171Z,31.71
2023-03-02T12:27:49.384Z,31.83
2023-03-02T12:30:17.320Z,30.92
2023-03-02T12:32:45.395Z,31.24
2023-03-02T12:35:14.209Z,31.07
2023-03-02T12:37:42.027Z,31.29
2023-03-02T12:40:10.514Z,32.06
2023-03-02T12:42:38.617Z,33.18
2023-03-02T12:45:06.826Z,33.49
2023-03-02T12:47:35.561Z,33.45
2023-03-02T12:50:03.676Z,34.01
2023-03-02T12:52:32.319Z,34.07
2023-03-02T12:55:00.231Z,34.30
2023-03-02T12:57:28.319Z,34.66
2023-03-02T12:59:56.763Z,34.88
2023-03-02T13:02:24.727Z,34.88
2023-03-02T13:04:53.533Z,35.61
2023-03-02T13:07:21.624Z,35.93
2023-03-02T13:09:56.196Z,36.31
2023-03-02T13:12:24.855Z,36.15
2023-03-02T13:14:52.754Z,36.64
2023-03-02T13:17:20.947Z,36.54
2023-03-02T13:19:50.795Z,36.97
2023-03-02T13:22:18.842Z,37.42
2023-03-02T13:24:46.757Z,37.22
2023-03-02T13:27:14.768Z,37.65
2023-03-02T13:29:43.136Z,37.49
2023-03-02T13:32:11.086Z,37.81
2023-03-02T13:34:39.037Z,37.48
2023-03-02T13:37:06.886Z,37.93
2023-03-02T13:39:34.809Z,38.24
2023-03-02T13:42:02.782Z,38.32
2023-03-02T13:44:30.582Z,38.58
2023-03-02T13:46:58.507Z,38.83
2023-03-02T13:49:28.161Z,39.17
2023-03-02T13:51:56.071Z,39.36
2023-03-02T13:54:24.550Z,39.01
2023-03-02T13:56:52.731Z,39.09
2023-03-02T13:59:20.597Z,39.21
2023-03-02T14:01:48.405Z,38.89
2023-03-02T14:04:17.007Z,38.67
2023-03-02T14:06:45.386Z,38.25
2023-03-02T14:09:13.283Z,38.08
2023-03-02T14:11:41.759Z,37.62
2023-03-02T14:14:09.978Z,37.63
2023-03-02T14:16:37.836Z,36.83
2023-03-02T14:19:06.068Z,37.00
2023-03-02T14:21:36.468Z,37.39
2023-03-02T14:24:04.590Z,37.41
2023-03-02T14:26:32.745Z,37.68
2023-03-02T14:29:05.733Z,37.28
2023-03-02T14:31:34.806Z,37.47
2023-03-02T14:34:02.988Z,37.84
2023-03-02T14:36:31.083Z,38.00
2023-03-02T14:38:59.233Z,38.71
2023-03-02T14:41:27.090Z,38.57
2023-03-02T14:43:55.644Z,38.18
2023-03-02T14:46:23.898Z,38.58
2023-03-02T14:48:51.633Z,38.33
2023-03-02T14:51:20.048Z,37.89
2023-03-02T14:53:48.420Z,37.99
2023-03-02T14:56:16.940Z,37.81
2023-03-02T14:58:44.789Z,36.90
2023-03-02T15:01:12.650Z,37.50
2023-03-02T15:03:40.697Z,37.44
2023-03-02T15:06:08.602Z,37.12
2023-03-02T15:08:37.349Z,37.33
2023-03-02T15:11:05.245Z,37.66
2023-03-02T15:13:32.933Z,37.34
2023-03-02T15:16:02.749Z,37.28
2023-03-02T15:18:30.762Z,36.89
2023-03-02T15:20:59.224Z,36.86
2023-03-02T15:23:27.336Z,36.25
2023-03-02T15:25:55.189Z,36.09
2023-03-02T15:28:23.103Z,35.61
2023-03-02T15:30:51.013Z,35.63
2023-03-02T15:33:19.576Z,35.06
2023-03-02T15:35:47.534Z,34.68
2023-03-02T15:38:16.042Z,34.23
2023-03-02T15:40:44.697Z,34.01
2023-03-02T15:43:12.797Z,33.72
2023-03-02T15:45:41.485Z,33.68
2023-03-02T15:48:09.662Z,33.09
2023-03-02T15:50:38.136Z,33.56
2023-03-02T15:53:06.335Z,33.19
2023-03-02T15:55:34.309Z,33.87
2023-03-02T15:58:02.348Z,34.33
2023-03-02T16:00:30.307Z,36.46
2023-03-02T16:02:58.311Z,37.98
2023-03-02T16:05:26.218Z,39.55
2023-03-02T16:07:54.389Z,40.39
2023-03-02T16:10:25.416Z,42.10
2023-03-02T16:12:53.338Z,42.88
2023-03-02T16:15:21.440Z,43.06
2023-03-02T16:17:49.408Z,43.58
2023-03-02T16:20:17.249Z,44.29
2023-03-02T16:22:46.125Z,44.55
2023-03-02T16:25:13.880Z,45.01
2023-03-02T16:27:45.309Z,45.66
2023-03-02T16:30:14.391Z,46.16
2023-03-02T16:32:42.363Z,46.16
2023-03-02T16:35:10.926Z,46.30
2023-03-02T16:37:38.942Z,46.51
2023-03-02T16:40:06.817Z,46.96
2023-03-02T16:42:34.849Z,47.44
2023-03-02T16:45:03.389Z,47.30
2023-03-02T16:47:31.618Z,47.73
2023-03-02T16:49:59.460Z,47.95
2023-03-02T16:52:27.568Z,47.63
2023-03-02T16:54:55.416Z,48.42
2023-03-02T16:57:23.314Z,48.72
2023-03-02T16:59:51.336Z,48.89
2023-03-02T17:02:19.306Z,49.31
2023-03-02T17:04:47.128Z,49.38
2023-03-02T17:07:17.195Z,49.28
2023-03-02T17:09:45.047Z,49.22
2023-03-02T17:12:13.222Z,49.77
2023-03-02T17:14:41.392Z,49.90
2023-03-02T17:17:09.264Z,50.17
2023-03-02T17:19:37.393Z,50.36
2023-03-02T17:22:05.502Z,50.55
2023-03-02T17:24:33.786Z,50.77
2023-03-02T17:27:01.740Z,50.92
2023-03-02T17:29:29.803Z,50.73
2023-03-02T17:31:57.734Z,51.53
2023-03-02T17:34:28.836Z,51.79
2023-03-02T17:36:57.668Z,51.68
2023-03-02T17:39:26.066Z,52.40
2023-03-02T17:41:53.915Z,52.42
2023-03-02T17:44:22.113Z,53.16
2023-03-02T17:46:50.027Z,53.09
2023-03-02T17:49:19.004Z,53.24
2023-03-02T17:51:46.950Z,53.11
2023-03-02T17:54:14.833Z,53.87
2023-03-02T17:56:42.778Z,54.39
2023-03-02T17:59:10.766Z,54.06
2023-03-02T18:01:39.247Z,53.87
2023-03-02T18:04:07.335Z,54.58
2023-03-02T18:06:35.467Z,54.94
2023-03-02T18:09:03.891Z,54.55
2023-03-02T18:11:32.156Z,54.86
2023-03-02T18:14:00.239Z,55.42
2023-03-02T18:16:28.178Z,55.36
2023-03-02T18:18:56.254Z,55.30
2023-03-02T18:21:24.587Z,55.85
2023-03-02T18:23:52.580Z,55.72
2023-03-02T18:26:21.085Z,56.67
2023-03-02T18:28:49.102Z,56.25
2023-03-02T18:31:17.173Z,56.65
2023-03-02T18:33:47.073Z,56.57
2023-03-02T18:36:15.133Z,56.64
2023-03-02T18:38:43.334Z,56.71
2023-03-02T18:41:11.297Z,57.00
2023-03-02T18:43:39.358Z,57.09
2023-03-02T18:46:08.811Z,57.18
2023-03-02T18:48:37.906Z,57.26
2023-03-02T18:51:06.104Z,57.83
2023-03-02T18:53:34.295Z,57.82
2023-03-02T18:56:02.586Z,58.16
2023-03-02T18:58:34.432Z,58.54
2023-03-02T19:01:02.553Z,58.37
2023-03-02T19:03:31.052Z,58.04
2023-03-02T19:05:59.435Z,58.47
2023-03-02T19:08:27.387Z,58.87
2023-03-02T19:10:55.517Z,58.70
2023-03-02T19:13:23.480Z,58.81
2023-03-02T19:15:52.738Z,58.88
2023-03-02T19:18:22.673Z,58.71
2023-03-02T19:20:50.659Z,59.64
2023-03-02T19:23:18.908Z,59.25
2023-03-02T19:25:46.876Z,59.19
2023-03-02T19:28:15.491Z,59.80
2023-03-02T19:30:43.464Z,59.04
2023-03-02T19:33:11.352Z,60.03
2023-03-02T19:35:39.733Z,59.96
2023-03-02T19:38:07.756Z,59.71
2023-03-02T19:40:36.398Z,59.94
2023-03-02T19:43:04.952Z,59.87
2023-03-02T19:45:32.983Z,59.92
2023-03-02T19:48:01.137Z,60.43
2023-03-02T19:50:29.097Z,60.61
2023-03-02T19:52:56.906Z,60.70
2023-03-02T19:55:25.220Z,60.55
2023-03-02T19:57:59.888Z,60.55
2023-03-02T20:00:28.205Z,60.58
2023-03-02T20:02:56.629Z,61.25
2023-03-02T20:05:26.209Z,60.82
2023-03-02T20:07:54.037Z,60.92
2023-03-02T20:10:21.990Z,61.62
2023-03-02T20:12:50.047Z,61.21
2023-03-02T20:15:17.906Z,61.54
2023-03-02T20:17:46.053Z,61.09
2023-03-02T20:20:14.191Z,61.34
2023-03-02T20:22:41.974Z,61.56
2023-03-02T20:25:11.595Z,61.70
2023-03-02T20:27:39.564Z,61.59
2023-03-02T20:30:08.193Z,61.23
2023-03-02T20:32:36.151Z,61.50
2023-03-02T20:35:04.196Z,60.74
2023-03-02T20:37:32.673Z,60.84
2023-03-02T20:40:00.756Z,61.29
2023-03-02T20:42:32.010Z,60.81
2023-03-02T20:45:00.636Z,60.71
2023-03-02T20:47:28.887Z,60.79
2023-03-02T20:49:57.296Z,60.36
2023-03-02T20:52:25.211Z,60.56
2023-03-02T20:54:53.381Z,60.90
2023-03-02T20:57:21.657Z,60.62
2023-03-02T20:59:49.551Z,61.05
2023-03-02T21:02:17.762Z,61.13
2023-03-02T21:04:45.581Z,61.01
2023-03-02T21:07:13.892Z,60.62
2023-03-02T21:09:42.170Z,60.69
2023-03-02T21:12:12.117Z,60.66
2023-03-02T21:14:40.500Z,60.72
2023-03-02T21:17:08.381Z,60.65
2023-03-02T21:19:36.818Z,60.82
2023-03-02T21:22:04.672Z,60.91
2023-03-02T21:24:32.522Z,60.84
2023-03-02T21:27:01.673Z,60.73
2023-03-02T21:29:30.006Z,61.26
2023-03-02T21:31:58.299Z,61.34
2023-03-02T21:34:26.402Z,61.12
2023-03-02T21:36:54.586Z,60.82
2023-03-02T21:39:23.881Z,60.95
2023-03-02T21:41:51.697Z,61.14
2023-03-02T21:44:20.077Z,61.30
2023-03-02T21:46:47.997Z,61.51
2023-03-02T21:49:15.854Z,62.23
2023-03-02T21:51:44.005Z,62.18
2023-03-02T21:54:12.461Z,63.01
2023-03-02T21:56:40.579Z,63.25
2023-03-02T21:59:08.419Z,62.86
2023-03-02T22:01:36.163Z,63.61
2023-03-02T22:04:04.371Z,63.75
2023-03-02T22:06:32.263Z,64.09
2023-03-02T22:09:00.107Z,63.57
2023-03-02T22:11:28.277Z,63.53
2023-03-02T22:13:56.207Z,63.26
2023-03-02T22:16:25.745Z,63.89
2023-03-02T22:18:53.707Z,64.10
2023-03-02T22:21:21.788Z,63.53
2023-03-02T22:23:49.678Z,63.87
2023-03-02T22:26:17.455Z,64.71
2023-03-02T22:28:45.242Z,64.05
2023-03-02T22:31:13.053Z,64.23
2023-03-02T22:33:41.838Z,64.47
2023-03-02T22:36:09.669Z,63.85
2023-03-02T22:38:37.773Z,64.34
2023-03-02T22:41:05.648Z,64.21
2023-03-02T22:43:34.408Z,64.67
2023-03-02T22:46:02.289Z,64.46
2023-03-02T22:48:30.044Z,64.67
2023-03-02T22:50:57.719Z,65.29
2023-03-02T22:53:25.615Z,64.76
2023-03-02T22:55:53.292Z,65.16
2023-03-02T22:58:21.473Z,65.63
2023-03-02T23:00:49.392Z,65.53
2023-03-02T23:03:17.646Z,65.84
2023-03-02T23:05:49.160Z,65.68
2023-03-02T23:08:18.398Z,66.08
2023-03-02T23:10:46.153Z,65.97
2023-03-02T23:13:13.881Z,65.91
2023-03-02T23:15:42.894Z,66.23
2023-03-02T23:18:10.904Z,67.02
2023-03-02T23:20:38.583Z,67.25
2023-03-02T23:23:07.030Z,67.28
2023-03-02T23:25:34.736Z,66.91
2023-03-02T23:28:02.444Z,67.33
2023-03-02T23:30:30.688Z,67.55
2023-03-02T23:32:58.372Z,67.05
2023-03-02T23:35:26.470Z,67.16
2023-03-02T23:37:54.244Z,67.01
2023-03-02T23:40:22.245Z,67.80
2023-03-02T23:42:50.104Z,67.45
2023-03-02T23:45:18.081Z,67.10
2023-03-02T23:47:46.146Z,67.35
2023-03-02T23:50:13.804Z,67.45
2023-03-02T23:52:41.503Z,67.25
2023-03-02T23:55:09.342Z,67.75
2023-03-02T23:57:36.953Z,68.09
